Time;durP1;ratioP1;P1;durP2;ratioP2;P2;SDS_P1;SDS_P2;PMS_P1;PMS_P2;Temp;Humidity;BMP_temperature;BMP_pressure;BME280_temperature;BME280_humidity;BME280_pressure;Samples;Min_cycle;Max_cycle;Signal;HPM_P1;HPM_P2
2023/06/13 00:01:48;;;;;;;;;;;;;;;13.01;47.54;101850.56;5012982;28;19920;-75
2023/06/13 00:04:21;;;;;;;;;;;;;;;12.85;48.11;101863.06;5025940;28;19917;-77
2023/06/13 00:06:47;;;;;;;;;;;;;;;12.65;49.34;101858.31;5025917;28;20008;-75
2023/06/13 00:09:13;;;;;;;;;;;;;;;12.51;49.66;101852.56;5023196;28;19921;-75
2023/06/13 00:11:39;;;;;;;;;;;;;;;12.35;50.98;101858.06;5024539;28;19917;-77
2023/06/13 00:14:05;;;;;;;;;;;;;;;12.23;51.79;101860.91;5027295;28;20393;-75
2023/06/13 00:16:31;;;;;;;;;;;;;;;12.10;52.42;101850.56;5029993;28;19970;-76
2023/06/13 00:18:58;;;;;;;;;;;;;;;11.94;52.60;101852.28;5024158;28;19932;-75
2023/06/13 00:21:26;;;;;;;;;;;;;;;11.84;52.95;101858.31;5026233;28;19933;-75
2023/06/13 00:23:51;;;;;;;;;;;;;;;11.97;52.29;101857.13;5041482;28;20399;-75
2023/06/13 00:26:20;;;;;;;;;;;;;;;11.82;53.21;101848.91;5008619;28;20021;-76
2023/06/13 00:28:48;;;;;;;;;;;;;;;11.76;53.50;101840.75;5025792;28;19922;-76
2023/06/13 00:31:16;;;;;;;;;;;;;;;11.62;53.84;101836.03;5025194;28;19925;-75
2023/06/13 00:33:43;;;;;;;;;;;;;;;11.57;54.67;101831.38;5028453;28;19983;-76
2023/06/13 00:36:37;;;;;;;;;;;;;;;11.49;54.65;101840.69;5015361;28;20341;-75
2023/06/13 00:39:03;;;;;;;;;;;;;;;11.44;54.93;101834.44;5020540;28;20004;-75
2023/06/13 00:41:31;;;;;;;;;;;;;;;11.39;54.99;101834.41;5023764;28;20011;-75
2023/06/13 00:43:58;;;;;;;;;;;;;;;11.33;55.91;101840.75;5036206;28;19921;-76
2023/06/13 00:46:34;;;;;;;;;;;;;;;11.25;56.07;101835.81;5024944;28;19922;-76
2023/06/13 00:49:00;;;;;;;;;;;;;;;11.20;56.05;101842.72;5009310;28;19917;-76
2023/06/13 00:51:27;;;;;;;;;;;;;;;11.14;56.21;101838.34;5025388;28;19927;-76
2023/06/13 00:53:54;;;;;;;;;;;;;;;11.05;56.90;101849.75;5009807;28;20394;-75
2023/06/13 00:56:22;;;;;;;;;;;;;;;11.02;56.66;101844.84;5006166;28;20293;-76
2023/06/13 00:58:48;;;;;;;;;;;;;;;10.99;56.62;101830.09;4998343;28;20016;-75
2023/06/13 01:01:19;;;;;;;;;;;;;;;10.90;57.09;101837.69;5014365;28;19928;-74
2023/06/13 01:03:45;;;;;;;;;;;;;;;10.86;57.32;101831.22;5013048;28;20628;-76
2023/06/13 01:06:14;;;;;;;;;;;;;;;11.05;57.71;101826.41;5019858;28;19943;-76
2023/06/13 01:08:47;;;;;;;;;;;;;;;11.04;57.61;101819.44;5051561;28;19905;-75
2023/06/13 01:11:41;;;;;;;;;;;;;;;11.05;58.08;101820.25;5047146;28;19988;-76
2023/06/13 01:14:40;;;;;;;;;;;;;;;10.91;57.85;101817.91;5015128;28;19944;-75
2023/06/13 01:17:14;;;;;;;;;;;;;;;10.88;57.42;101818.38;5020342;28;19917;-75
2023/06/13 01:19:47;;;;;;;;;;;;;;;10.85;57.66;101823.44;5005516;28;19921;-73
2023/06/13 01:22:19;;;;;;;;;;;;;;;10.96;58.18;101814.47;5057465;28;20383;-75
2023/06/13 01:24:54;;;;;;;;;;;;;;;10.93;58.26;101812.28;5041130;28;19964;-75
2023/06/13 01:27:22;;;;;;;;;;;;;;;11.01;58.95;101821.78;5033376;28;19928;-77
2023/06/13 01:29:50;;;;;;;;;;;;;;;11.00;59.59;101809.44;5019107;28;19971;-74
2023/06/13 01:32:18;;;;;;;;;;;;;;;10.85;58.90;101808.16;5018105;28;20299;-77
2023/06/13 01:34:45;;;;;;;;;;;;;;;10.81;59.94;101811.56;5033402;28;20524;-75
2023/06/13 01:37:11;;;;;;;;;;;;;;;10.63;60.17;101805.44;5037255;28;19971;-76
2023/06/13 01:39:37;;;;;;;;;;;;;;;10.69;60.39;101808.97;5024537;28;19932;-76
2023/06/13 01:42:06;;;;;;;;;;;;;;;10.62;60.02;101801.09;5012107;28;21326;-76
2023/06/13 01:44:33;;;;;;;;;;;;;;;10.48;60.31;101812.38;5024920;28;19917;-76
2023/06/13 01:47:05;;;;;;;;;;;;;;;10.46;59.82;101819.84;5030798;28;20454;-74
2023/06/13 01:49:31;;;;;;;;;;;;;;;10.37;59.22;101806.88;5005477;28;20333;-75
2023/06/13 01:51:58;;;;;;;;;;;;;;;10.56;58.81;101812.78;5024269;28;19917;-76
2023/06/13 01:54:26;;;;;;;;;;;;;;;10.51;59.17;101806.56;5027928;28;20447;-74
2023/06/13 01:56:55;;;;;;;;;;;;;;;10.53;59.39;101807.94;5027140;28;20433;-75
2023/06/13 01:59:25;;;;;;;;;;;;;;;10.49;59.43;101798.75;5015069;28;19926;-73
2023/06/13 02:01:52;;;;;;;;;;;;;;;10.56;58.71;101806.63;5021583;28;19950;-75
2023/06/13 02:04:18;;;;;;;;;;;;;;;10.50;59.42;101805.75;5016855;28;19928;-76
2023/06/13 02:06:45;;;;;;;;;;;;;;;10.50;59.69;101805.75;5007801;28;19925;-76
2023/06/13 02:09:12;;;;;;;;;;;;;;;10.46;60.67;101809.97;5020542;28;19921;-76
2023/06/13 02:11:37;;;;;;;;;;;;;;;10.45;60.58;101807.53;5014501;28;19928;-76
2023/06/13 02:14:03;;;;;;;;;;;;;;;10.47;60.07;101808.09;5036414;28;20302;-74
2023/06/13 02:16:29;;;;;;;;;;;;;;;10.41;60.88;101811.72;5011543;28;19958;-75
2023/06/13 02:18:55;;;;;;;;;;;;;;;10.59;59.26;101809.63;5023512;28;19929;-75
2023/06/13 02:21:22;;;;;;;;;;;;;;;10.61;59.95;101796.81;5031723;28;19921;-74
2023/06/13 02:23:49;;;;;;;;;;;;;;;10.64;60.17;101808.91;5022447;28;19927;-76
2023/06/13 02:26:16;;;;;;;;;;;;;;;10.62;60.31;101805.66;5009205;28;19921;-75
2023/06/13 02:28:47;;;;;;;;;;;;;;;10.67;60.56;101805.72;5007151;28;19923;-74
2023/06/13 02:31:15;;;;;;;;;;;;;;;10.49;60.91;101808.66;5022949;28;19965;-75
2023/06/13 02:33:41;;;;;;;;;;;;;;;10.35;60.88;101806.28;5025526;28;20489;-75
2023/06/13 02:36:07;;;;;;;;;;;;;;;10.29;61.31;101809.09;5007289;28;20004;-74
2023/06/13 02:38:33;;;;;;;;;;;;;;;10.19;61.78;101803.56;5011283;28;20004;-75
2023/06/13 02:40:59;;;;;;;;;;;;;;;10.17;62.13;101797.66;5016663;28;19921;-75
2023/06/13 02:43:25;;;;;;;;;;;;;;;10.05;62.33;101795.03;5024394;28;19944;-75
2023/06/13 02:45:52;;;;;;;;;;;;;;;10.08;62.40;101808.72;5010734;28;20318;-74
2023/06/13 02:48:17;;;;;;;;;;;;;;;9.95;62.97;101800.16;5025722;28;19921;-75
2023/06/13 02:50:44;;;;;;;;;;;;;;;9.95;63.23;101795.63;5030232;28;20008;-73
2023/06/13 02:53:11;;;;;;;;;;;;;;;9.85;64.19;101798.94;5009686;28;19917;-75
2023/06/13 02:55:37;;;;;;;;;;;;;;;9.85;64.47;101800.81;5027683;28;19921;-75
2023/06/13 02:58:02;;;;;;;;;;;;;;;9.85;64.48;101798.94;5028913;28;19917;-75
2023/06/13 03:00:29;;;;;;;;;;;;;;;9.94;64.01;101804.72;4990013;28;20419;-74
2023/06/13 03:03:02;;;;;;;;;;;;;;;9.93;64.65;101799.59;5028485;28;19921;-73
2023/06/13 03:05:28;;;;;;;;;;;;;;;9.89;64.44;101793.94;5011518;28;19921;-74
2023/06/13 03:07:56;;;;;;;;;;;;;;;9.85;65.15;101798.13;4999405;28;19921;-75
2023/06/13 03:10:23;;;;;;;;;;;;;;;10.00;65.49;101798.41;5029891;28;19921;-76
2023/06/13 03:12:49;;;;;;;;;;;;;;;10.03;65.68;101800.63;5015708;28;19967;-75
2023/06/13 03:15:16;;;;;;;;;;;;;;;10.15;65.76;101805.91;4993470;28;19929;-75
2023/06/13 03:17:44;;;;;;;;;;;;;;;10.32;65.94;101801.41;5030335;28;19960;-78
2023/06/13 03:20:11;;;;;;;;;;;;;;;10.24;66.03;101796.47;5024278;28;19921;-75
2023/06/13 03:22:37;;;;;;;;;;;;;;;10.21;66.96;101798.78;5012905;28;19932;-76
2023/06/13 03:25:03;;;;;;;;;;;;;;;10.20;67.02;101800.63;5009425;28;19925;-76
2023/06/13 03:27:29;;;;;;;;;;;;;;;10.15;67.44;101802.41;5025314;28;19917;-77
2023/06/13 03:29:55;;;;;;;;;;;;;;;10.22;67.75;101803.06;5012764;28;20001;-76
2023/06/13 03:32:20;;;;;;;;;;;;;;;10.20;68.23;101805.19;5010611;28;20008;-75
2023/06/13 03:34:47;;;;;;;;;;;;;;;10.24;68.36;101806.38;5023295;28;19960;-75
2023/06/13 03:37:14;;;;;;;;;;;;;;;10.51;68.17;101796.66;5010952;28;19922;-76
2023/06/13 03:39:41;;;;;;;;;;;;;;;10.48;68.65;101794.44;5000526;28;19948;-74
2023/06/13 03:42:07;;;;;;;;;;;;;;;10.48;68.87;101802.47;5040643;28;19928;-76
2023/06/13 03:44:33;;;;;;;;;;;;;;;10.47;69.25;101798.19;5016730;28;19928;-75
2023/06/13 03:46:58;;;;;;;;;;;;;;;10.43;69.30;101804.25;5023882;28;19917;-76
2023/06/13 03:49:25;;;;;;;;;;;;;;;10.60;69.28;101799.72;5029540;28;19917;-74
2023/06/13 03:51:53;;;;;;;;;;;;;;;10.90;67.77;101794.81;5029682;28;19986;-75
2023/06/13 03:54:21;;;;;;;;;;;;;;;10.96;68.23;101792.22;5008723;28;20001;-75
2023/06/13 03:56:47;;;;;;;;;;;;;;;11.03;68.23;101801.72;5013379;28;19921;-75
2023/06/13 03:59:12;;;;;;;;;;;;;;;11.06;68.43;101806.59;5007434;28;19995;-75
2023/06/13 04:01:41;;;;;;;;;;;;;;;11.11;68.92;101801.31;5011065;28;20297;-75
2023/06/13 04:04:07;;;;;;;;;;;;;;;11.19;68.55;101798.19;5030367;28;20370;-77
2023/06/13 04:06:33;;;;;;;;;;;;;;;11.16;68.68;101798.69;5009280;28;20031;-76
2023/06/13 04:08:58;;;;;;;;;;;;;;;11.23;69.16;101795.81;5011538;28;20004;-75
2023/06/13 04:11:24;;;;;;;;;;;;;;;11.34;68.42;101794.09;5041721;28;19924;-74
2023/06/13 04:13:51;;;;;;;;;;;;;;;11.45;68.47;101791.28;5025448;28;19932;-74
2023/06/13 04:16:16;;;;;;;;;;;;;;;11.49;68.54;101791.59;5006106;28;20246;-77
2023/06/13 04:18:43;;;;;;;;;;;;;;;11.42;69.89;101796.34;5020340;28;19928;-74
2023/06/13 04:21:09;;;;;;;;;;;;;;;11.62;69.02;101793.91;5013477;28;19921;-75
2023/06/13 04:23:35;;;;;;;;;;;;;;;11.76;68.90;101792.44;5024705;28;20058;-75
2023/06/13 04:26:02;;;;;;;;;;;;;;;11.73;69.34;101792.97;5024103;28;19968;-76
2023/06/13 04:28:29;;;;;;;;;;;;;;;11.79;69.02;101793.03;5024056;28;20004;-76
2023/06/13 04:30:56;;;;;;;;;;;;;;;12.03;68.83;101792.50;5012681;28;20390;-76
2023/06/13 04:33:24;;;;;;;;;;;;;;;12.08;68.81;101788.25;4997743;28;19921;-75
2023/06/13 04:35:49;;;;;;;;;;;;;;;12.18;68.55;101788.31;5041323;28;19944;-74
2023/06/13 04:38:18;;;;;;;;;;;;;;;12.26;68.25;101788.69;5025784;28;20318;-77
2023/06/13 04:40:43;;;;;;;;;;;;;;;12.28;68.23;101786.56;5026898;28;20404;-75
2023/06/13 04:43:09;;;;;;;;;;;;;;;12.46;68.01;101785.38;5025187;28;20017;-76
2023/06/13 04:45:36;;;;;;;;;;;;;;;12.57;68.35;101791.63;5010192;28;20286;-75
2023/06/13 04:48:03;;;;;;;;;;;;;;;12.57;68.34;101786.25;5040725;28;19929;-76
2023/06/13 04:50:28;;;;;;;;;;;;;;;12.81;67.46;101787.50;5017201;28;19932;-77
2023/06/13 04:52:57;;;;;;;;;;;;;;;12.82;67.98;101781.06;5043013;28;19920;-77
2023/06/13 04:55:25;;;;;;;;;;;;;;;12.97;67.71;101784.91;5026382;28;20004;-75
2023/06/13 04:57:51;;;;;;;;;;;;;;;13.05;67.44;101782.53;5022320;28;19971;-75
2023/06/13 05:00:17;;;;;;;;;;;;;;;13.03;67.27;101778.50;5025274;28;19925;-76
2023/06/13 05:02:42;;;;;;;;;;;;;;;13.05;67.34;101781.72;5014644;28;19943;-76
2023/06/13 05:05:08;;;;;;;;;;;;;;;13.12;67.59;101782.28;5020962;28;19925;-75
2023/06/13 05:07:35;;;;;;;;;;;;;;;13.19;67.06;101782.88;5043393;28;20106;-75
2023/06/13 05:10:03;;;;;;;;;;;;;;;13.18;67.05;101781.25;5012213;28;19920;-76
2023/06/13 05:12:29;;;;;;;;;;;;;;;13.43;66.56;101787.88;5042472;28;20036;-75
2023/06/13 05:14:55;;;;;;;;;;;;;;;13.45;67.04;101791.09;5026798;28;19925;-76
2023/06/13 05:17:21;;;;;;;;;;;;;;;13.62;66.67;101780.94;5021331;28;19932;-75
2023/06/13 05:19:47;;;;;;;;;;;;;;;13.78;66.29;101803.31;5040787;28;19925;-75
2023/06/13 05:22:13;;;;;;;;;;;;;;;13.89;65.91;101792.31;5020622;28;19921;-77
2023/06/13 05:24:40;;;;;;;;;;;;;;;14.00;66.25;101790.44;5012689;28;19936;-75
2023/06/13 05:27:06;;;;;;;;;;;;;;;14.09;65.68;101796.94;5024694;28;19932;-76
2023/06/13 05:29:31;;;;;;;;;;;;;;;14.19;65.03;101796.94;5026480;28;19924;-76
2023/06/13 05:31:59;;;;;;;;;;;;;;;14.20;65.63;101786.97;5025145;28;20004;-75
2023/06/13 05:34:26;;;;;;;;;;;;;;;14.30;65.21;101795.06;5021423;28;20636;-74
2023/06/13 05:36:52;;;;;;;;;;;;;;;14.48;64.39;101788.34;5007349;28;19928;-76
2023/06/13 05:39:18;;;;;;;;;;;;;;;14.62;65.01;101792.09;5042947;28;19925;-76
2023/06/13 05:41:43;;;;;;;;;;;;;;;14.66;63.58;101800.47;4997457;28;20520;-74
2023/06/13 05:44:09;;;;;;;;;;;;;;;14.77;63.94;101780.53;5023234;28;19917;-76
2023/06/13 05:46:34;;;;;;;;;;;;;;;14.91;64.00;101783.47;5014933;28;19921;-75
2023/06/13 05:49:00;;;;;;;;;;;;;;;15.03;64.29;101779.34;5017218;28;20370;-74
2023/06/13 05:51:25;;;;;;;;;;;;;;;15.26;62.58;101777.16;5013556;28;19932;-75
2023/06/13 05:53:51;;;;;;;;;;;;;;;15.43;62.46;101774.91;5024036;28;19925;-77
2023/06/13 05:56:16;;;;;;;;;;;;;;;15.55;62.49;101777.28;5012561;28;19925;-76
2023/06/13 05:58:45;;;;;;;;;;;;;;;15.50;62.83;101775.41;5043178;28;19980;-76
2023/06/13 06:01:11;;;;;;;;;;;;;;;15.72;61.46;101775.06;5025189;28;19921;-76
2023/06/13 06:03:36;;;;;;;;;;;;;;;15.90;61.65;101770.91;5027382;28;19928;-76
2023/06/13 06:06:02;;;;;;;;;;;;;;;16.05;61.02;101770.81;5010974;28;20390;-77
2023/06/13 06:08:28;;;;;;;;;;;;;;;16.31;59.85;101776.00;5035453;28;19963;-76
2023/06/13 06:10:53;;;;;;;;;;;;;;;16.47;59.71;101774.81;5023554;28;20008;-76
2023/06/13 06:13:19;;;;;;;;;;;;;;;16.72;59.86;101767.56;5032631;28;19921;-76
2023/06/13 06:15:44;;;;;;;;;;;;;;;16.76;59.17;101765.91;5036641;28;20425;-75
2023/06/13 06:18:10;;;;;;;;;;;;;;;17.09;58.49;101767.72;5045679;28;19920;-76
2023/06/13 06:20:36;;;;;;;;;;;;;;;17.07;57.67;101761.78;5029566;28;19925;-76
2023/06/13 06:23:01;;;;;;;;;;;;;;;16.88;58.64;101764.44;5030103;28;19991;-75
2023/06/13 06:25:26;;;;;;;;;;;;;;;17.00;58.27;101769.44;5032770;28;20532;-76
2023/06/13 06:27:52;;;;;;;;;;;;;;;17.09;58.83;101759.59;5028769;28;19929;-76
2023/06/13 06:30:17;;;;;;;;;;;;;;;17.06;58.06;101759.34;5028477;28;19921;-75
2023/06/13 06:32:43;;;;;;;;;;;;;;;17.32;57.66;101760.66;5020143;28;19921;-75
2023/06/13 06:35:09;;;;;;;;;;;;;;;17.41;57.58;101761.66;5043067;28;20456;-76
2023/06/13 06:37:35;;;;;;;;;;;;;;;17.56;56.44;101757.91;5036861;28;20363;-75
2023/06/13 06:40:01;;;;;;;;;;;;;;;17.86;55.80;101766.72;5013373;28;19932;-76
2023/06/13 06:42:26;;;;;;;;;;;;;;;18.05;56.42;101766.72;5032499;28;19964;-75
2023/06/13 06:44:58;;;;;;;;;;;;;;;17.89;55.14;101763.47;5039488;28;19921;-75
2023/06/13 06:47:24;;;;;;;;;;;;;;;17.97;55.52;101763.59;5025813;28;20277;-75
2023/06/13 06:49:49;;;;;;;;;;;;;;;18.05;55.17;101758.59;5016769;28;19924;-76
2023/06/13 06:52:15;;;;;;;;;;;;;;;18.36;54.04;101759.72;5043615;28;19921;-76
2023/06/13 06:54:40;;;;;;;;;;;;;;;18.32;54.36;101764.13;5029771;28;20330;-75
2023/06/13 06:57:05;;;;;;;;;;;;;;;18.31;53.32;101756.28;5017863;28;20286;-76
2023/06/13 06:59:31;;;;;;;;;;;;;;;18.48;53.36;101762.75;5043095;28;19931;-77
2023/06/13 07:01:56;;;;;;;;;;;;;;;18.98;52.36;101762.16;5026199;28;19924;-76
2023/06/13 07:04:25;;;;;;;;;;;;;;;19.10;49.94;101757.00;5027048;28;19921;-76
2023/06/13 07:06:51;;;;;;;;;;;;;;;19.07;49.09;101754.91;5014943;28;20414;-76
2023/06/13 07:09:16;;;;;;;;;;;;;;;19.03;49.02;101751.16;5009998;28;19957;-76
2023/06/13 07:11:43;;;;;;;;;;;;;;;19.23;49.54;101750.75;5024953;28;19988;-77
2023/06/13 07:14:08;;;;;;;;;;;;;;;19.32;47.82;101748.97;5042776;28;19921;-77
2023/06/13 07:16:33;;;;;;;;;;;;;;;19.67;47.92;101748.50;5029455;28;19956;-76
2023/06/13 07:18:59;;;;;;;;;;;;;;;19.65;48.48;101751.53;5017402;28;20246;-77
2023/06/13 07:21:25;;;;;;;;;;;;;;;19.70;48.77;101753.31;5023741;28;19976;-77
2023/06/13 07:23:51;;;;;;;;;;;;;;;19.57;48.32;101749.50;5013822;28;20298;-74
2023/06/13 07:26:17;;;;;;;;;;;;;;;19.49;47.87;101744.78;5031744;28;20378;-75
2023/06/13 07:28:42;;;;;;;;;;;;;;;19.76;48.07;101747.47;5028838;28;20019;-75
2023/06/13 07:31:08;;;;;;;;;;;;;;;19.97;48.50;101741.53;5027417;28;19928;-75
2023/06/13 07:33:34;;;;;;;;;;;;;;;20.02;47.43;101739.50;5047118;28;19928;-75
2023/06/13 07:36:00;;;;;;;;;;;;;;;20.38;46.19;101747.56;5012840;28;19960;-75
2023/06/13 07:38:26;;;;;;;;;;;;;;;20.47;45.98;101744.97;5010860;28;19932;-76
2023/06/13 07:40:51;;;;;;;;;;;;;;;20.49;44.43;101736.47;5027924;28;19929;-75
2023/06/13 07:43:17;;;;;;;;;;;;;;;20.58;43.55;101738.13;5029651;28;19921;-76
2023/06/13 07:45:43;;;;;;;;;;;;;;;20.82;41.25;101732.31;4996846;28;19928;-76
2023/06/13 07:48:08;;;;;;;;;;;;;;;20.58;43.24;101734.59;5008753;28;19921;-76
2023/06/13 07:50:34;;;;;;;;;;;;;;;20.58;43.81;101731.88;5023668;28;19921;-74
2023/06/13 07:53:00;;;;;;;;;;;;;;;20.83;43.83;101730.38;5031743;28;19921;-74
2023/06/13 07:55:26;;;;;;;;;;;;;;;21.28;42.43;101731.03;5027699;28;19925;-75
2023/06/13 07:57:51;;;;;;;;;;;;;;;21.33;42.44;101736.31;5038148;28;19925;-76
2023/06/13 08:00:17;;;;;;;;;;;;;;;21.68;41.33;101739.09;5026546;28;19948;-74
2023/06/13 08:02:43;;;;;;;;;;;;;;;21.53;42.31;101745.78;5026305;28;19921;-75
2023/06/13 08:05:09;;;;;;;;;;;;;;;21.69;41.79;101744.22;5026254;28;19921;-77
2023/06/13 08:07:35;;;;;;;;;;;;;;;21.91;41.19;101740.50;5026602;28;19917;-74
2023/06/13 08:10:00;;;;;;;;;;;;;;;22.23;42.91;101741.16;5022979;28;19922;-75
2023/06/13 08:12:26;;;;;;;;;;;;;;;22.16;40.42;101743.56;5037753;28;19941;-75
2023/06/13 08:14:51;;;;;;;;;;;;;;;22.60;40.18;101747.78;4996520;28;20382;-75
2023/06/13 08:17:17;;;;;;;;;;;;;;;22.20;41.44;101744.50;5014828;28;19921;-76
2023/06/13 08:19:48;;;;;;;;;;;;;;;22.18;40.67;101750.28;5026846;28;20287;-74
2023/06/13 08:22:14;;;;;;;;;;;;;;;22.13;39.83;101745.00;5029207;28;19928;-76
2023/06/13 08:24:40;;;;;;;;;;;;;;;22.04;40.32;101738.72;5030471;28;19923;-75
2023/06/13 08:27:07;;;;;;;;;;;;;;;22.18;38.84;101742.13;5039389;28;19925;-74
2023/06/13 08:29:33;;;;;;;;;;;;;;;22.40;38.35;101732.09;5028427;28;20294;-75
2023/06/13 08:31:59;;;;;;;;;;;;;;;22.75;38.17;101738.22;5012063;28;20378;-75
2023/06/13 08:34:25;;;;;;;;;;;;;;;22.30;37.85;101736.00;5011601;28;19921;-76
2023/06/13 08:36:51;;;;;;;;;;;;;;;22.42;36.31;101743.50;5012119;28;19921;-74
2023/06/13 08:39:16;;;;;;;;;;;;;;;22.59;36.95;101736.06;5012122;28;19921;-74
2023/06/13 08:41:44;;;;;;;;;;;;;;;22.53;37.49;101737.34;5028761;28;19917;-74
2023/06/13 08:44:09;;;;;;;;;;;;;;;22.85;36.27;101738.69;5030475;28;19918;-77
2023/06/13 08:46:36;;;;;;;;;;;;;;;23.40;34.08;101732.28;5028613;28;20244;-75
2023/06/13 08:49:05;;;;;;;;;;;;;;;23.04;36.40;101741.03;5033906;28;20015;-74
2023/06/13 08:51:31;;;;;;;;;;;;;;;23.04;35.78;101730.09;5027515;28;19952;-76
2023/06/13 08:54:03;;;;;;;;;;;;;;;23.17;36.57;101736.47;5012579;28;19921;-76
2023/06/13 08:56:33;;;;;;;;;;;;;;;23.34;36.43;101735.53;5025508;28;19921;-74
2023/06/13 08:59:07;;;;;;;;;;;;;;;23.28;37.47;101734.13;5012942;28;19967;-74
2023/06/13 09:01:34;;;;;;;;;;;;;;;23.58;37.37;101722.03;5028470;28;20004;-75
2023/06/13 09:04:00;;;;;;;;;;;;;;;23.66;34.48;101721.19;5013472;28;20039;-73
2023/06/13 09:06:28;;;;;;;;;;;;;;;23.92;34.50;101728.34;5025622;28;20450;-76
2023/06/13 09:08:55;;;;;;;;;;;;;;;23.68;35.02;101720.84;5011926;28;19917;-75
2023/06/13 09:11:22;;;;;;;;;;;;;;;23.60;35.76;101722.47;5028157;28;20032;-74
2023/06/13 09:13:49;;;;;;;;;;;;;;;23.80;34.85;101722.84;5011502;28;20343;-76
2023/06/13 09:16:15;;;;;;;;;;;;;;;24.15;33.75;101717.81;4996007;28;20393;-76
2023/06/13 09:18:43;;;;;;;;;;;;;;;24.31;33.83;101720.69;5018029;28;20003;-77
2023/06/13 09:21:09;;;;;;;;;;;;;;;23.70;35.57;101713.88;5026752;28;19959;-74
2023/06/13 09:23:35;;;;;;;;;;;;;;;23.75;34.50;101717.56;5028556;28;19917;-74
2023/06/13 09:26:02;;;;;;;;;;;;;;;23.87;35.19;101707.47;5034200;28;19928;-76
2023/06/13 09:28:31;;;;;;;;;;;;;;;24.30;33.80;101713.63;5027538;28;19917;-73
2023/06/13 09:30:57;;;;;;;;;;;;;;;24.51;31.99;101709.69;5011989;28;19921;-75
2023/06/13 09:33:23;;;;;;;;;;;;;;;24.50;32.68;101705.34;5027637;28;19917;-77
2023/06/13 09:35:48;;;;;;;;;;;;;;;24.72;31.84;101695.91;5011729;28;19921;-76
2023/06/13 09:38:20;;;;;;;;;;;;;;;24.83;33.08;101703.66;5007809;28;19921;-77
2023/06/13 09:40:47;;;;;;;;;;;;;;;25.02;32.95;101701.13;5014405;28;19929;-76
2023/06/13 09:43:12;;;;;;;;;;;;;;;25.16;30.41;101695.31;5024103;28;20267;-77
2023/06/13 09:45:39;;;;;;;;;;;;;;;25.37;30.45;101700.66;5042518;28;19928;-76
2023/06/13 09:48:05;;;;;;;;;;;;;;;25.30;31.56;101702.03;5024880;28;20313;-74
2023/06/13 09:50:31;;;;;;;;;;;;;;;25.12;31.11;101697.94;5014843;28;20025;-75
2023/06/13 09:52:57;;;;;;;;;;;;;;;25.38;30.96;101696.75;5031150;28;20031;-74
2023/06/13 09:55:22;;;;;;;;;;;;;;;25.53;30.76;101691.31;5009789;28;20008;-74
2023/06/13 09:57:51;;;;;;;;;;;;;;;25.56;30.42;101687.09;5043628;28;20016;-76
2023/06/13 10:00:17;;;;;;;;;;;;;;;25.59;29.54;101689.13;5041818;28;19924;-74
2023/06/13 10:02:43;;;;;;;;;;;;;;;25.59;28.46;101686.41;5029090;28;19986;-75
2023/06/13 10:05:10;;;;;;;;;;;;;;;25.74;28.39;101682.13;5026725;28;19982;-73
2023/06/13 10:07:35;;;;;;;;;;;;;;;24.92;31.48;101676.94;5027177;28;19921;-72
2023/06/13 10:10:01;;;;;;;;;;;;;;;25.23;28.47;101685.38;5014138;28;19974;-75
2023/06/13 10:12:27;;;;;;;;;;;;;;;25.38;26.90;101681.09;5028370;28;19940;-75
2023/06/13 10:14:58;;;;;;;;;;;;;;;25.95;26.87;101676.44;5039679;28;19921;-75
2023/06/13 10:17:28;;;;;;;;;;;;;;;25.59;27.85;101675.41;5011116;28;19928;-75
2023/06/13 10:20:00;;;;;;;;;;;;;;;25.52;27.07;101669.75;5025928;28;20326;-75
2023/06/13 10:22:26;;;;;;;;;;;;;;;25.36;28.45;101669.69;5011639;28;19921;-77
2023/06/13 10:24:53;;;;;;;;;;;;;;;25.43;28.18;101678.13;5014777;28;19931;-73
2023/06/13 10:27:19;;;;;;;;;;;;;;;25.77;28.98;101682.25;5043485;28;19928;-76
2023/06/13 10:30:06;;;;;;;;;;;;;;;25.00;31.39;101670.56;5025052;28;20405;-75
2023/06/13 10:32:31;;;;;;;;;;;;;;;25.44;30.84;101662.47;5007077;28;19921;-74
2023/06/13 10:35:09;;;;;;;;;;;;;;;26.02;29.96;101669.19;5029243;28;19949;-78
2023/06/13 10:37:38;;;;;;;;;;;;;;;25.64;29.40;101669.69;5027015;28;20322;-77
2023/06/13 10:40:04;;;;;;;;;;;;;;;25.72;28.73;101663.28;5028510;28;19934;-74
2023/06/13 10:42:42;;;;;;;;;;;;;;;25.72;29.58;101671.50;5009445;28;20099;-77
2023/06/13 10:45:13;;;;;;;;;;;;;;;26.44;29.02;101671.44;5022881;28;19974;-76
2023/06/13 10:47:38;;;;;;;;;;;;;;;26.24;29.66;101662.28;5028143;28;19921;-77
2023/06/13 10:50:06;;;;;;;;;;;;;;;26.72;29.51;101659.53;5003675;28;20294;-76
2023/06/13 10:52:31;;;;;;;;;;;;;;;26.12;29.91;101660.44;5009764;28;20391;-75
2023/06/13 10:54:58;;;;;;;;;;;;;;;26.23;28.72;101659.91;4999188;28;19960;-77
2023/06/13 10:57:46;;;;;;;;;;;;;;;26.30;29.42;101649.91;5024516;28;19940;-73
2023/06/13 11:00:32;;;;;;;;;;;;;;;26.47;29.08;101659.75;5025068;28;19925;-74
2023/06/13 11:03:10;;;;;;;;;;;;;;;26.79;26.26;101645.97;5010499;28;20111;-75
2023/06/13 11:05:45;;;;;;;;;;;;;;;26.60;28.05;101653.00;5030534;28;19975;-75
2023/06/13 11:08:14;;;;;;;;;;;;;;;26.51;29.69;101637.88;5012276;28;20371;-77
2023/06/13 11:10:41;;;;;;;;;;;;;;;26.52;30.59;101647.69;5044841;28;19920;-74
2023/06/13 11:13:20;;;;;;;;;;;;;;;26.35;30.09;101646.91;5027604;28;19975;-76
2023/06/13 11:15:46;;;;;;;;;;;;;;;26.26;30.82;101638.03;5032224;28;21355;-75
2023/06/13 11:18:13;;;;;;;;;;;;;;;26.92;30.35;101631.75;5015048;28;19921;-75
2023/06/13 11:20:59;;;;;;;;;;;;;;;26.87;29.95;101636.72;5027732;28;19940;-76
2023/06/13 11:23:39;;;;;;;;;;;;;;;26.17;30.79;101637.41;5027735;28;20016;-76
2023/06/13 11:26:05;;;;;;;;;;;;;;;26.02;30.93;101632.72;5043665;28;19928;-76
2023/06/13 11:28:31;;;;;;;;;;;;;;;26.82;30.97;101626.78;5045783;28;19921;-76
2023/06/13 11:31:00;;;;;;;;;;;;;;;26.94;30.76;101618.44;4997437;28;20012;-77
2023/06/13 11:33:28;;;;;;;;;;;;;;;26.69;30.57;101611.63;5023752;28;20706;-75
2023/06/13 11:35:56;;;;;;;;;;;;;;;26.43;30.98;101614.13;5028720;28;19960;-75
2023/06/13 11:38:31;;;;;;;;;;;;;;;26.87;30.39;101618.28;5013922;28;20373;-76
2023/06/13 11:40:57;;;;;;;;;;;;;;;26.76;31.04;101614.50;5026310;28;19956;-76
2023/06/13 11:43:26;;;;;;;;;;;;;;;27.15;28.24;101612.59;5028094;28;20391;-76
2023/06/13 11:46:01;;;;;;;;;;;;;;;27.56;27.97;101609.47;5030500;28;20385;-76
2023/06/13 11:48:27;;;;;;;;;;;;;;;27.16;28.34;101596.91;5018535;28;19947;-75
2023/06/13 11:50:53;;;;;;;;;;;;;;;27.60;27.98;101605.63;5028837;28;20259;-75
2023/06/13 11:53:19;;;;;;;;;;;;;;;27.58;26.61;101610.72;5032997;28;20432;-76
2023/06/13 11:55:45;;;;;;;;;;;;;;;27.59;25.44;101600.50;5040117;28;19927;-76
2023/06/13 11:58:10;;;;;;;;;;;;;;;27.75;24.65;101599.25;5025660;28;19921;-77
2023/06/13 12:00:55;;;;;;;;;;;;;;;27.75;25.11;101606.72;5030604;28;19926;-75
2023/06/13 12:03:22;;;;;;;;;;;;;;;28.38;24.48;101595.19;5019759;28;19929;-76
2023/06/13 12:05:48;;;;;;;;;;;;;;;29.12;23.95;101588.34;5028704;28;19936;-75
2023/06/13 12:08:14;;;;;;;;;;;;;;;29.24;23.72;101588.09;5026604;28;19921;-76
2023/06/13 12:10:40;;;;;;;;;;;;;;;28.49;23.93;101587.09;5030084;28;20511;-77
2023/06/13 12:13:06;;;;;;;;;;;;;;;28.29;24.22;101595.44;5026977;28;19917;-75
2023/06/13 12:15:31;;;;;;;;;;;;;;;28.34;25.29;101583.34;5026554;28;19917;-75
2023/06/13 12:17:59;;;;;;;;;;;;;;;27.93;23.11;101580.31;5022242;28;19920;-74
2023/06/13 12:20:26;;;;;;;;;;;;;;;28.81;22.45;101579.28;5027484;28;19932;-77
2023/06/13 12:22:58;;;;;;;;;;;;;;;29.15;22.22;101576.56;5015714;28;19928;-75
2023/06/13 12:25:26;;;;;;;;;;;;;;;29.37;22.98;101576.41;5042391;28;19989;-74
2023/06/13 12:27:53;;;;;;;;;;;;;;;28.74;23.24;101573.69;5019166;28;20007;-75
2023/06/13 12:30:19;;;;;;;;;;;;;;;29.27;23.35;101568.03;5026828;28;20023;-75
2023/06/13 12:32:50;;;;;;;;;;;;;;;29.28;23.74;101575.94;5026302;28;20043;-75
2023/06/13 12:35:23;;;;;;;;;;;;;;;29.34;22.63;101574.44;5040252;28;19925;-77
2023/06/13 12:37:58;;;;;;;;;;;;;;;29.32;22.09;101562.16;5042514;28;20306;-74
2023/06/13 12:40:33;;;;;;;;;;;;;;;28.83;22.65;101571.41;5025565;28;19925;-76